createdAt,value
2017-08-22T00:01:51.995Z,15.40
2017-08-22T00:04:19.864Z,15.40
2017-08-22T00:06:47.607Z,15.40
2017-08-22T00:09:15.319Z,15.40
2017-08-22T00:11:43.158Z,15.40
2017-08-22T00:14:11.026Z,15.30
2017-08-22T00:16:38.892Z,15.20
2017-08-22T00:19:06.765Z,15.10
2017-08-22T00:21:34.639Z,15.00
2017-08-22T00:24:02.496Z,15.10
2017-08-22T00:26:30.468Z,15.10
2017-08-22T00:28:58.338Z,15.10
2017-08-22T00:31:26.204Z,15.10
2017-08-22T00:33:53.934Z,15.10
2017-08-22T00:36:21.666Z,15.00
2017-08-22T00:38:49.410Z,15.00
2017-08-22T00:41:17.259Z,15.00
2017-08-22T00:43:45.053Z,15.00
2017-08-22T00:46:12.891Z,14.90
2017-08-22T00:48:40.758Z,14.90
2017-08-22T00:51:08.727Z,14.90
2017-08-22T00:53:36.596Z,14.90
2017-08-22T00:56:04.565Z,14.90
2017-08-22T00:58:32.432Z,14.80
2017-08-22T01:01:00.183Z,14.80
2017-08-22T01:03:27.950Z,14.80
2017-08-22T01:05:55.710Z,14.80
2017-08-22T01:08:23.439Z,14.80
2017-08-22T01:10:51.170Z,14.80
2017-08-22T01:13:19.021Z,14.70
2017-08-22T01:15:46.889Z,14.70
2017-08-22T01:18:14.758Z,14.70
2017-08-22T01:20:42.622Z,14.60
2017-08-22T01:23:10.361Z,14.60
2017-08-22T01:25:38.082Z,14.60
2017-08-22T01:28:05.879Z,14.60
2017-08-22T01:30:33.685Z,14.60
2017-08-22T01:33:01.474Z,14.60
2017-08-22T01:35:29.202Z,14.50
2017-08-22T01:37:56.979Z,14.50
2017-08-22T01:40:24.755Z,14.50
2017-08-22T01:42:52.520Z,14.40
2017-08-22T01:45:20.277Z,14.40
2017-08-22T01:47:48.000Z,14.40
2017-08-22T01:50:15.801Z,14.30
2017-08-22T01:52:43.668Z,14.30
2017-08-22T01:55:11.536Z,14.20
2017-08-22T01:57:39.403Z,14.20
2017-08-22T02:00:07.271Z,14.20
2017-08-22T02:02:35.138Z,14.20
2017-08-22T02:05:02.939Z,14.20
2017-08-22T02:07:30.770Z,14.20
2017-08-22T02:09:58.566Z,14.20
2017-08-22T02:12:26.505Z,14.20
2017-08-22T02:14:54.372Z,14.20
2017-08-22T02:17:22.240Z,14.20
2017-08-22T02:19:50.107Z,14.10
2017-08-22T02:22:17.974Z,14.20
2017-08-22T02:24:45.842Z,14.20
2017-08-22T02:27:13.710Z,14.10
2017-08-22T02:29:41.576Z,14.10
2017-08-22T02:32:09.287Z,14.10
2017-08-22T02:34:36.997Z,14.10
2017-08-22T02:37:04.870Z,14.10
2017-08-22T02:39:32.739Z,14.10
2017-08-22T02:42:00.707Z,14.00
2017-08-22T02:44:28.587Z,14.00
2017-08-22T02:46:56.443Z,14.10
2017-08-22T02:49:24.242Z,14.00
2017-08-22T02:51:52.074Z,14.00
2017-08-22T02:54:19.943Z,14.00
2017-08-22T02:56:47.809Z,14.00
2017-08-22T02:59:15.676Z,14.10
2017-08-22T03:01:43.543Z,14.10
2017-08-22T03:04:11.412Z,14.10
2017-08-22T03:06:39.279Z,14.00
2017-08-22T03:09:07.146Z,14.00
2017-08-22T03:11:34.858Z,14.00
2017-08-22T03:14:02.582Z,14.00
2017-08-22T03:16:30.440Z,14.00
2017-08-22T03:18:58.153Z,14.00
2017-08-22T03:21:25.971Z,14.00
2017-08-22T03:23:53.837Z,14.00
2017-08-22T03:26:21.704Z,14.00
2017-08-22T03:28:49.572Z,14.00
2017-08-22T03:31:17.439Z,14.00
2017-08-22T03:33:45.145Z,13.90
2017-08-22T03:36:12.972Z,13.90
2017-08-22T03:38:40.838Z,13.90
2017-08-22T03:41:08.708Z,13.90
2017-08-22T03:43:36.576Z,13.80
2017-08-22T03:46:04.374Z,13.80
2017-08-22T03:48:32.102Z,13.80
2017-08-22T03:50:59.873Z,13.70
2017-08-22T03:53:27.732Z,13.70
2017-08-22T03:55:55.601Z,13.70
2017-08-22T03:58:23.468Z,13.70
2017-08-22T04:00:51.335Z,13.70
2017-08-22T04:03:19.061Z,13.70
2017-08-22T04:05:46.864Z,13.70
2017-08-22T04:08:14.734Z,13.70
2017-08-22T04:10:42.601Z,13.60
2017-08-22T04:13:10.467Z,13.60
2017-08-22T04:15:38.196Z,13.60
2017-08-22T04:18:05.905Z,13.50
2017-08-22T04:20:33.760Z,13.50
2017-08-22T04:23:01.644Z,13.50
2017-08-22T04:25:29.497Z,13.40
2017-08-22T04:27:57.364Z,13.40
2017-08-22T04:30:25.230Z,13.40
2017-08-22T04:32:53.099Z,13.40
2017-08-22T04:35:20.965Z,13.40
2017-08-22T04:37:48.732Z,13.40
2017-08-22T04:40:16.597Z,13.40
2017-08-22T04:42:44.465Z,13.40
2017-08-22T04:45:12.331Z,13.40
2017-08-22T04:47:40.200Z,13.40
2017-08-22T04:50:08.066Z,13.40
2017-08-22T04:52:35.934Z,13.40
2017-08-22T04:55:03.801Z,13.50
2017-08-22T04:57:31.668Z,13.40
2017-08-22T04:59:59.535Z,13.40
2017-08-22T05:02:27.404Z,13.30
2017-08-22T05:04:55.269Z,13.40
2017-08-22T05:07:23.138Z,13.40
2017-08-22T05:09:51.005Z,13.40
2017-08-22T05:12:18.872Z,13.40
2017-08-22T05:14:46.740Z,13.40
2017-08-22T05:17:14.608Z,13.50
2017-08-22T05:19:42.474Z,13.50
2017-08-22T05:22:10.342Z,13.60
2017-08-22T05:24:38.209Z,13.60
2017-08-22T05:27:06.076Z,13.60
2017-08-22T05:29:33.943Z,13.60
2017-08-22T05:32:01.810Z,13.70
2017-08-22T05:34:29.678Z,13.80
2017-08-22T05:36:57.545Z,13.80
2017-08-22T05:39:25.413Z,13.80
2017-08-22T05:41:53.279Z,13.90
2017-08-22T05:44:22.606Z,14.00
2017-08-22T05:46:50.448Z,14.10
2017-08-22T05:49:20.367Z,14.20
2017-08-22T05:51:48.230Z,14.40
2017-08-22T05:54:16.098Z,14.50
2017-08-22T05:56:43.967Z,14.60
2017-08-22T05:59:11.831Z,14.80
2017-08-22T06:01:39.699Z,14.80
2017-08-22T06:04:07.567Z,15.00
2017-08-22T06:06:35.434Z,15.10
2017-08-22T06:09:03.301Z,15.20
2017-08-22T06:11:31.169Z,15.40
2017-08-22T06:13:59.031Z,15.60
2017-08-22T06:16:26.904Z,15.70
2017-08-22T06:18:54.771Z,15.90
2017-08-22T06:21:22.632Z,16.20
2017-08-22T06:23:50.505Z,16.50
2017-08-22T06:26:18.373Z,16.80
2017-08-22T06:28:46.240Z,17.10
2017-08-22T06:31:14.107Z,17.70
2017-08-22T06:33:41.974Z,18.40
2017-08-22T06:36:09.845Z,19.60
2017-08-22T06:38:37.710Z,20.90
2017-08-22T06:41:05.576Z,22.10
2017-08-22T06:43:33.440Z,23.30
2017-08-22T06:46:01.315Z,24.40
2017-08-22T06:48:29.183Z,25.40
2017-08-22T06:50:57.052Z,26.30
2017-08-22T06:53:24.912Z,27.10
2017-08-22T06:55:52.784Z,27.90
2017-08-22T06:58:20.652Z,28.60
2017-08-22T07:00:48.516Z,29.40
2017-08-22T07:03:16.384Z,29.60
2017-08-22T07:05:44.250Z,29.50
2017-08-22T07:08:12.116Z,29.50
2017-08-22T07:10:39.983Z,29.60
2017-08-22T07:13:07.851Z,29.50
2017-08-22T07:15:35.717Z,29.50
2017-08-22T07:18:03.585Z,30.10
2017-08-22T07:20:31.453Z,30.60
2017-08-22T07:22:59.320Z,30.80
2017-08-22T07:25:27.188Z,30.80
2017-08-22T07:27:55.056Z,30.80
2017-08-22T07:30:22.923Z,30.90
2017-08-22T07:32:50.790Z,30.80
2017-08-22T07:35:18.656Z,30.50
2017-08-22T07:37:46.524Z,30.20
2017-08-22T07:40:14.391Z,29.90
2017-08-22T07:42:42.258Z,29.50
2017-08-22T07:45:10.126Z,29.10
2017-08-22T07:47:37.993Z,28.60
2017-08-22T07:50:05.861Z,28.10
2017-08-22T07:52:33.727Z,27.60
2017-08-22T07:55:01.594Z,27.40
2017-08-22T07:57:29.461Z,27.20
2017-08-22T07:59:57.330Z,27.00
2017-08-22T08:02:25.197Z,26.80
2017-08-22T08:04:53.064Z,26.70
2017-08-22T08:07:20.931Z,26.70
2017-08-22T08:09:49.106Z,26.70
2017-08-22T08:12:16.973Z,26.60
2017-08-22T08:14:44.770Z,26.70
2017-08-22T08:17:13.424Z,26.80
2017-08-22T08:19:41.292Z,26.80
2017-08-22T08:22:09.159Z,27.00
2017-08-22T08:24:37.028Z,27.10
2017-08-22T08:27:04.893Z,27.20
2017-08-22T08:29:32.760Z,27.40
2017-08-22T08:32:00.627Z,27.50
2017-08-22T08:34:28.495Z,27.50
2017-08-22T08:36:56.362Z,27.70
2017-08-22T08:39:24.223Z,27.80
2017-08-22T08:41:52.027Z,28.00
2017-08-22T08:44:19.862Z,28.10
2017-08-22T08:46:47.733Z,28.30
2017-08-22T08:49:15.596Z,28.50
2017-08-22T08:51:43.464Z,28.50
2017-08-22T08:54:11.331Z,28.70
2017-08-22T08:56:39.199Z,28.70
2017-08-22T08:59:07.089Z,28.90
2017-08-22T09:01:34.936Z,29.00
2017-08-22T09:04:02.801Z,29.10
2017-08-22T09:06:30.668Z,29.10
2017-08-22T09:08:58.535Z,29.20
2017-08-22T09:11:26.402Z,29.30
2017-08-22T09:13:54.270Z,29.40
2017-08-22T09:16:22.139Z,29.50
2017-08-22T09:18:50.003Z,29.60
2017-08-22T09:21:17.871Z,29.70
2017-08-22T09:23:45.738Z,29.70
2017-08-22T09:26:13.607Z,29.90
2017-08-22T09:28:41.477Z,30.00
2017-08-22T09:31:09.339Z,30.10
2017-08-22T09:33:37.207Z,30.20
2017-08-22T09:36:05.073Z,30.30
2017-08-22T09:38:32.942Z,30.40
2017-08-22T09:41:00.810Z,30.50
2017-08-22T09:43:28.676Z,30.50
2017-08-22T09:45:56.544Z,30.40
2017-08-22T09:48:24.411Z,30.50
2017-08-22T09:50:52.279Z,30.60
2017-08-22T09:53:20.146Z,30.80
2017-08-22T09:55:48.014Z,30.90
2017-08-22T09:58:15.982Z,31.00
2017-08-22T10:00:43.855Z,31.20
2017-08-22T10:03:11.721Z,31.40
2017-08-22T10:05:39.586Z,31.40
2017-08-22T10:08:07.452Z,31.60
2017-08-22T10:10:35.323Z,31.80
2017-08-22T10:13:03.191Z,32.00
2017-08-22T10:15:31.057Z,32.10
2017-08-22T10:17:58.921Z,32.20
2017-08-22T10:20:26.789Z,31.80
2017-08-22T10:22:54.656Z,31.60
2017-08-22T10:25:22.522Z,31.40
2017-08-22T10:27:50.389Z,31.70
2017-08-22T10:30:18.256Z,31.90
2017-08-22T10:32:46.124Z,32.20
2017-08-22T10:35:13.991Z,32.40
2017-08-22T10:37:41.859Z,32.20
2017-08-22T10:40:09.725Z,32.40
2017-08-22T10:42:37.594Z,32.20
2017-08-22T10:45:05.460Z,32.10
2017-08-22T10:47:33.328Z,31.60
2017-08-22T10:50:01.194Z,31.40
2017-08-22T10:52:29.063Z,31.70
2017-08-22T10:54:56.930Z,31.70
2017-08-22T10:57:24.797Z,31.80
2017-08-22T10:59:52.664Z,32.20
2017-08-22T11:02:20.531Z,32.50
2017-08-22T11:04:48.523Z,32.50
2017-08-22T11:07:16.368Z,32.30
2017-08-22T11:09:44.236Z,32.40
2017-08-22T11:12:12.103Z,32.60
2017-08-22T11:14:39.970Z,32.80
2017-08-22T11:17:07.837Z,32.80
2017-08-22T11:19:35.706Z,32.90
2017-08-22T11:22:03.572Z,33.10
2017-08-22T11:24:31.438Z,33.10
2017-08-22T11:26:59.306Z,33.30
2017-08-22T11:29:27.173Z,33.20
2017-08-22T11:31:55.041Z,33.20
2017-08-22T11:34:22.908Z,33.10
2017-08-22T11:36:50.776Z,33.10
2017-08-22T11:39:18.642Z,33.30
2017-08-22T11:41:46.511Z,33.60
2017-08-22T11:44:14.377Z,33.80
2017-08-22T11:46:42.245Z,33.80
2017-08-22T11:49:10.112Z,33.60
2017-08-22T11:51:37.979Z,33.40
2017-08-22T11:54:05.846Z,33.50
2017-08-22T11:56:33.714Z,33.40
2017-08-22T11:59:01.581Z,33.30
2017-08-22T12:01:29.448Z,33.60
2017-08-22T12:03:57.315Z,33.70
2017-08-22T12:06:25.183Z,33.80
2017-08-22T12:08:53.049Z,33.50
2017-08-22T12:11:20.815Z,33.40
2017-08-22T12:13:48.682Z,33.40
2017-08-22T12:16:16.549Z,32.30
2017-08-22T12:18:44.415Z,31.60
2017-08-22T12:21:12.285Z,31.50
2017-08-22T12:23:40.154Z,31.40
2017-08-22T12:26:08.019Z,31.40
2017-08-22T12:28:35.893Z,31.60
2017-08-22T12:31:03.756Z,31.90
2017-08-22T12:33:31.619Z,32.40
2017-08-22T12:35:59.488Z,32.50
2017-08-22T12:38:27.353Z,32.70
2017-08-22T12:40:55.222Z,32.80
2017-08-22T12:43:23.088Z,33.20
2017-08-22T12:45:50.956Z,33.20
2017-08-22T12:48:18.823Z,32.60
2017-08-22T12:50:46.693Z,32.70
2017-08-22T12:53:14.557Z,32.90
2017-08-22T12:55:42.424Z,32.70
2017-08-22T12:58:10.292Z,32.80
2017-08-22T13:00:38.159Z,33.00
2017-08-22T13:03:06.026Z,33.10
2017-08-22T13:05:33.894Z,33.20
2017-08-22T13:08:01.761Z,33.40
2017-08-22T13:10:29.628Z,33.60
2017-08-22T13:12:57.496Z,33.80
2017-08-22T13:15:25.366Z,33.80
2017-08-22T13:17:53.230Z,33.90
2017-08-22T13:20:21.099Z,34.00
2017-08-22T13:22:48.972Z,34.10
2017-08-22T13:25:16.776Z,34.20
2017-08-22T13:27:44.534Z,34.20
2017-08-22T13:30:13.181Z,34.10
2017-08-22T13:32:41.053Z,34.10
2017-08-22T13:35:08.920Z,34.20
2017-08-22T13:37:36.785Z,34.30
2017-08-22T13:40:04.650Z,33.90
2017-08-22T13:42:32.518Z,33.60
2017-08-22T13:45:00.384Z,33.60
2017-08-22T13:47:28.253Z,33.80
2017-08-22T13:49:56.118Z,33.80
2017-08-22T13:52:23.986Z,33.80
2017-08-22T13:54:51.853Z,33.90
2017-08-22T13:57:19.720Z,33.40
2017-08-22T13:59:47.613Z,32.20
2017-08-22T14:02:15.456Z,31.70
2017-08-22T14:04:43.322Z,31.90
2017-08-22T14:07:11.189Z,32.10
2017-08-22T14:09:39.066Z,32.20
2017-08-22T14:12:06.924Z,32.40
2017-08-22T14:14:34.793Z,32.50
2017-08-22T14:17:02.658Z,32.60
2017-08-22T14:19:30.527Z,32.80
2017-08-22T14:21:58.393Z,32.60
2017-08-22T14:24:26.260Z,32.80
2017-08-22T14:26:54.127Z,32.80
2017-08-22T14:29:21.995Z,32.80
2017-08-22T14:31:50.068Z,32.50
2017-08-22T14:34:17.934Z,32.00
2017-08-22T14:36:45.802Z,31.80
2017-08-22T14:39:13.669Z,31.90
2017-08-22T14:41:41.535Z,31.90
2017-08-22T14:44:09.402Z,31.90
2017-08-22T14:46:37.270Z,31.90
2017-08-22T14:49:05.138Z,31.70
2017-08-22T14:51:33.005Z,31.10
2017-08-22T14:54:00.871Z,30.80
2017-08-22T14:56:28.739Z,30.80
2017-08-22T14:58:56.607Z,30.80
2017-08-22T15:01:24.480Z,30.80
2017-08-22T15:03:52.351Z,30.80
2017-08-22T15:06:20.208Z,30.50
2017-08-22T15:08:48.075Z,30.30
2017-08-22T15:11:15.968Z,30.30
2017-08-22T15:13:43.816Z,30.30
2017-08-22T15:16:11.678Z,30.20
2017-08-22T15:18:39.475Z,30.00
2017-08-22T15:21:07.310Z,29.90
2017-08-22T15:23:35.176Z,29.70
2017-08-22T15:26:03.044Z,29.60
2017-08-22T15:28:30.910Z,29.30
2017-08-22T15:30:58.779Z,29.00
2017-08-22T15:33:26.645Z,28.30
2017-08-22T15:35:54.517Z,27.90
2017-08-22T15:38:22.379Z,27.80
2017-08-22T15:40:50.184Z,27.80
2017-08-22T15:43:18.012Z,27.80
2017-08-22T15:45:45.879Z,27.80
2017-08-22T15:48:13.746Z,27.80
2017-08-22T15:51:18.581Z,27.90
2017-08-22T15:53:46.448Z,28.00
2017-08-22T15:56:14.308Z,27.80
2017-08-22T15:58:42.182Z,27.70
2017-08-22T16:01:10.049Z,27.60
2017-08-22T16:03:37.916Z,27.60
2017-08-22T16:06:05.783Z,27.60
2017-08-22T16:08:33.660Z,27.40
2017-08-22T16:11:01.451Z,27.10
2017-08-22T16:13:29.282Z,26.90
2017-08-22T16:15:57.150Z,26.60
2017-08-22T16:18:25.017Z,26.50
2017-08-22T16:20:52.885Z,26.40
2017-08-22T16:23:20.751Z,26.30
2017-08-22T16:25:48.619Z,26.40
2017-08-22T16:28:16.486Z,26.40
2017-08-22T16:30:44.354Z,26.50
2017-08-22T16:33:12.221Z,26.30
2017-08-22T16:35:40.088Z,26.20
2017-08-22T16:38:07.956Z,26.10
2017-08-22T16:40:35.822Z,26.10
2017-08-22T16:43:03.689Z,26.00
2017-08-22T16:45:31.559Z,26.10
2017-08-22T16:47:59.424Z,26.20
2017-08-22T16:50:27.292Z,26.30
2017-08-22T16:52:55.163Z,26.20
2017-08-22T16:55:23.029Z,26.10
2017-08-22T16:57:50.895Z,26.10
2017-08-22T17:00:18.761Z,26.10
2017-08-22T17:02:46.632Z,26.00
2017-08-22T17:05:14.505Z,25.90
2017-08-22T17:07:42.365Z,26.00
2017-08-22T17:10:10.230Z,26.10
2017-08-22T17:12:38.104Z,26.20
2017-08-22T17:15:05.965Z,26.10
2017-08-22T17:17:33.832Z,26.20
2017-08-22T17:20:01.700Z,26.10
2017-08-22T17:22:29.565Z,26.00
2017-08-22T17:24:57.435Z,25.90
2017-08-22T17:27:25.300Z,25.80
2017-08-22T17:29:53.167Z,25.70
2017-08-22T17:32:21.035Z,25.50
2017-08-22T17:34:48.902Z,25.40
2017-08-22T17:37:16.769Z,25.30
2017-08-22T17:39:44.636Z,25.30
2017-08-22T17:42:12.505Z,25.10
2017-08-22T17:44:40.371Z,25.10
2017-08-22T17:47:08.238Z,24.90
2017-08-22T17:49:36.105Z,24.80
2017-08-22T17:52:03.995Z,24.70
2017-08-22T17:54:31.841Z,24.60
2017-08-22T17:56:59.707Z,24.50
2017-08-22T17:59:27.573Z,24.40
2017-08-22T18:01:55.441Z,24.20
2017-08-22T18:04:23.309Z,24.10
2017-08-22T18:06:51.176Z,23.90
2017-08-22T18:09:19.043Z,23.90
2017-08-22T18:11:46.910Z,23.80
2017-08-22T18:14:14.779Z,23.80
2017-08-22T18:16:42.647Z,23.70
2017-08-22T18:19:10.512Z,23.60
2017-08-22T18:21:38.379Z,23.40
2017-08-22T18:24:06.246Z,23.30
2017-08-22T18:26:34.116Z,23.20
2017-08-22T18:29:01.981Z,23.10
2017-08-22T18:31:29.848Z,23.00
2017-08-22T18:33:57.717Z,22.90
2017-08-22T18:36:25.582Z,22.70
2017-08-22T18:38:53.450Z,22.60
2017-08-22T18:41:21.318Z,22.50
2017-08-22T18:43:49.185Z,22.20
2017-08-22T18:46:17.052Z,22.10
2017-08-22T18:48:44.919Z,22.00
2017-08-22T18:51:12.786Z,21.90
2017-08-22T18:53:40.659Z,21.80
2017-08-22T18:56:08.446Z,21.70
2017-08-22T18:58:36.188Z,21.70
2017-08-22T19:01:04.051Z,21.60
2017-08-22T19:03:31.917Z,21.50
2017-08-22T19:05:59.785Z,21.50
2017-08-22T19:08:27.511Z,21.40
2017-08-22T19:10:56.192Z,21.40
2017-08-22T19:13:23.927Z,21.30
2017-08-22T19:15:51.646Z,21.20
2017-08-22T19:18:19.660Z,21.10
2017-08-22T19:20:47.382Z,21.00
2017-08-22T19:23:15.103Z,20.90
2017-08-22T19:25:42.826Z,20.90
2017-08-22T19:28:10.559Z,20.90
2017-08-22T19:30:38.286Z,20.80
2017-08-22T19:33:06.046Z,20.70
2017-08-22T19:35:33.845Z,20.60
2017-08-22T19:38:01.852Z,20.50
2017-08-22T19:40:29.572Z,20.30
2017-08-22T19:42:57.314Z,20.10
2017-08-22T19:45:25.095Z,19.90
2017-08-22T19:47:52.813Z,19.70
2017-08-22T19:50:20.547Z,19.50
2017-08-22T19:52:48.261Z,19.50
2017-08-22T19:55:15.983Z,19.40
2017-08-22T19:57:43.710Z,19.20
2017-08-22T20:00:11.469Z,19.10
2017-08-22T20:02:39.173Z,19.20
2017-08-22T20:05:06.898Z,19.10
2017-08-22T20:07:34.626Z,18.90
2017-08-22T20:10:02.334Z,18.80
2017-08-22T20:12:30.038Z,18.80
2017-08-22T20:14:57.763Z,18.70
2017-08-22T20:17:25.478Z,18.70
2017-08-22T20:19:53.191Z,18.80
2017-08-22T20:22:20.913Z,18.90
2017-08-22T20:24:48.630Z,19.00
2017-08-22T20:27:16.341Z,19.10
2017-08-22T20:29:44.042Z,19.10
2017-08-22T20:32:11.751Z,19.10
2017-08-22T20:34:39.463Z,19.10
2017-08-22T20:37:07.173Z,19.10
2017-08-22T20:39:34.881Z,19.00
2017-08-22T20:42:02.598Z,19.00
2017-08-22T20:44:30.331Z,19.00
2017-08-22T20:46:58.045Z,19.00
2017-08-22T20:49:25.775Z,18.90
2017-08-22T20:51:53.508Z,18.80
2017-08-22T20:54:21.231Z,18.80
2017-08-22T20:56:48.946Z,18.70
2017-08-22T20:59:16.680Z,18.60
2017-08-22T21:01:44.414Z,18.50
2017-08-22T21:04:12.147Z,18.40
2017-08-22T21:06:39.880Z,18.30
2017-08-22T21:09:07.603Z,18.30
2017-08-22T21:11:35.323Z,18.20
2017-08-22T21:14:03.051Z,18.20
2017-08-22T21:16:30.779Z,18.20
2017-08-22T21:18:58.500Z,18.10
2017-08-22T21:21:26.243Z,18.10
2017-08-22T21:23:54.284Z,18.00
2017-08-22T21:26:22.003Z,18.00
2017-08-22T21:28:49.729Z,18.00
2017-08-22T21:31:17.454Z,17.90
2017-08-22T21:33:45.180Z,17.90
2017-08-22T21:36:12.914Z,17.90
2017-08-22T21:38:40.642Z,17.80
2017-08-22T21:41:08.359Z,17.80
2017-08-22T21:43:36.087Z,17.80
2017-08-22T21:46:03.810Z,17.70
2017-08-22T21:48:31.529Z,17.70
2017-08-22T21:50:59.244Z,17.60
2017-08-22T21:53:26.964Z,17.60
2017-08-22T21:55:54.683Z,17.60
2017-08-22T21:58:25.724Z,17.60
2017-08-22T22:00:57.124Z,17.50
2017-08-22T22:03:28.526Z,17.50
2017-08-22T22:05:59.341Z,17.40
2017-08-22T22:08:31.877Z,17.30
2017-08-22T22:11:04.371Z,17.30
2017-08-22T22:13:36.671Z,17.20
2017-08-22T22:16:09.451Z,17.20
2017-08-22T22:18:42.500Z,17.20
2017-08-22T22:21:15.607Z,17.10
2017-08-22T22:23:47.026Z,17.10
2017-08-22T22:26:17.898Z,17.10
2017-08-22T22:28:48.925Z,17.00
2017-08-22T22:31:18.908Z,17.00
2017-08-22T22:33:49.018Z,17.00
2017-08-22T22:36:19.356Z,17.00
2017-08-22T22:38:50.672Z,16.90
2017-08-22T22:41:21.691Z,16.90
2017-08-22T22:43:53.170Z,16.90
2017-08-22T22:46:25.329Z,16.90
2017-08-22T22:48:58.433Z,16.90
2017-08-22T22:51:31.764Z,16.80
2017-08-22T22:54:05.353Z,16.80
2017-08-22T22:56:36.932Z,16.80
2017-08-22T22:59:08.618Z,16.80
2017-08-22T23:01:38.522Z,16.80
2017-08-22T23:04:09.253Z,16.80
2017-08-22T23:06:39.839Z,16.70
2017-08-22T23:09:10.107Z,16.80
2017-08-22T23:11:43.172Z,16.80
2017-08-22T23:14:15.299Z,16.80
2017-08-22T23:16:47.811Z,16.90
2017-08-22T23:19:19.891Z,16.90
2017-08-22T23:21:52.311Z,16.90
2017-08-22T23:24:24.500Z,17.00
2017-08-22T23:26:56.594Z,17.00
2017-08-22T23:29:29.117Z,17.10
2017-08-22T23:32:01.574Z,17.10
2017-08-22T23:34:33.521Z,17.10
2017-08-22T23:37:04.106Z,17.10
2017-08-22T23:39:34.616Z,17.10
2017-08-22T23:42:04.742Z,17.20
2017-08-22T23:44:34.958Z,17.20
2017-08-22T23:47:04.395Z,17.20
2017-08-22T23:49:35.283Z,17.20
2017-08-22T23:52:06.729Z,17.20
2017-08-22T23:54:38.525Z,17.20
2017-08-22T23:57:10.453Z,17.20
2017-08-22T23:59:42.311Z,17.20
